Coral Harbour Airport
CYZS : now visible

Airfield :











YOU CAN JOIN US ON...

 
LOGIN :

Register | Disclaimer

   EN    FR    IT 

 









Legend :    VFR   Marginal VFR   IFR   Intensive IFR   Very Intensive IFR
Visi :
Ceiling :
>= 8 km
>= 3000ft
5 to 8 km
1000 to 3000 ft
1500m to 5 km
500 to 1000 ft
800 to 1500m
200 to 500 ft
< 800m
< 200 ft
Symbols :   Thunderstorms  Fog  Heavy snow  Heavy precipitations  Wind > 20 kt






- Airport Elevation : 210 ft
- IATA code : YZS


CYZS - Coral Harbour

CURRENT METAR :
  • 251000Z 08010G16KT 15SM BKN007 M00/M00 A2911 RMK ST7 SLP863

EXPIRED METARs :
  • 250941Z 09014KT 10SM SCT005 BKN025 M00/M01 A2910 RMK SF4SC2 SLP860
  • 250900Z 09017KT 3SM BR BKN004 BKN022 M00/M01 A2910 RMK ST5SC2 SLP859
  • 250839Z 10015G23KT 3SM BR BKN004 OVC022 M00/M00 A2909 RMK ST6SC2 SLP858
  • 250834Z 09017G23KT 2SM -FZDZ BR OVC013 M00/M00 A2909 RMK ST8 CIG VRBL 011-016 SLP858
  • 250800Z 09017KT 3/4SM -FZDZ BR OVC010 M00/M00 A2909 RMK ST8 SLP858

TAF AMD TAF CYZS
Valid from the 25 at 10:00 until the 25 at 19:00 UTC


251011Z 2510/2519 08013KT P6SM SCT006 OVC025
TEMPO 2510/2515 3SM -RA BR BKN006
FM251500 05015KT P6SM SCT015 OVC030
TEMPO 2515/2519 P6SM -SHRA BKN015 RMK NXT FCST BY 251300Z
CZEG FIR / North America



MET'MAP, your aeronautical weather chart ! - Copyright ORBIFLY December 2007 - Disclaimer

ORBIFLY MET'MAP TEAM :

Programming & Development : Alexandra Zaïnal
Concept & original design : Baudouin d'Aumeries
Assistance for programming : Marc-Olivier Méhu
Technical & hardware support : Manuel Goepfert

Contact : metmap@orbifly.com




SOURCES & CREDITS :

   NOAA       Earth
Advisory